Have a Safe July 4th! 

Flight Track Log - Related Links

Times and Time Zones

All times are in EDT time to prevent confusion due to time zone crossing. See the N27901 flight status page for this flight to view local times or setup timezone preferences in your user account.

Time Position Orientation Groundspeed Altitude Reporting Facility
EDT Latitude Longitude Course Direction KTS MPH feet Rate Location/Type
Thu 03:44:25 AM 33.9340 -118.4360 258° West 174 200 1,600  Level FlightAware ADS-B
Thu 03:44:35 AM 33.9300 -118.4450 242° Southwest 186 214 1,900 1,333 Climbing FlightAware ADS-B
Thu 03:44:52 AM 33.9190 -118.4590 227° Southwest 214 246 2,200 1,111 Climbing FlightAware ADS-B
Thu 03:45:02 AM 33.9110 -118.4670 220° Southwest 243 280 2,400 1,974 Climbing FlightAware ADS-B
Thu 03:46:08 AM 33.8680 -118.5110 220° Southwest 271 312 4,700 3,225 Climbing FlightAware ADS-B
Thu 03:46:22 AM 33.8220 -118.5220 191° South 285 328 6,700 4,857 Climbing FlightAware ADS-B
Thu 03:46:50 AM 33.7850 -118.5210 179° South 292 336 8,100 2,830 Climbing FlightAware ADS-B
Thu 03:47:15 AM 33.7530 -118.5210 180° South 300 345 9,200 2,727 Climbing FlightAware ADS-B
Thu 03:47:45 AM 33.7110 -118.5110 169° South 319 367 10,600 2,372 Climbing FlightAware ADS-B
Thu 03:47:58 AM 33.6950 -118.4950 140° Southeast 338 389 10,900 1,448 Climbing FlightAware ADS-B
Thu 03:48:14 AM 33.6810 -118.4680 122° Southeast 359 413 11,300 1,607 Climbing FlightAware ADS-B
Thu 03:48:54 AM 33.6650 -118.3840 103° East 402 463 12,400 2,195 Climbing FlightAware ADS-B
Thu 03:49:36 AM 33.6650 -118.2950 90° East 416 479 14,300 2,400 Climbing FlightAware ADS-B
Thu 03:50:14 AM 33.6640 -118.2250 91° East 428 493 15,600 2,000 Climbing FlightAware ADS-B
Thu 03:51:18 AM 33.6630 -118.1070 91° East 442 509 17,700 2,743 Climbing FlightAware ADS-B
Thu 03:51:59 AM 33.6610 -117.9440 91° East 461 531 20,400 3,108 Climbing FlightAware ADS-B
Thu 03:52:41 AM 33.6600 -117.8350 91° East 473 544 22,000 2,268 Climbing FlightAware ADS-B
Thu 03:53:21 AM 33.6580 -117.7280 91° East 484 557 23,500 2,122 Climbing FlightAware ADS-B
Thu 03:54:03 AM 33.6570 -117.6150 91° East 495 570 24,900 2,093 Climbing FlightAware ADS-B
Thu 03:54:47 AM 33.6550 -117.4910 91° East 504 580 26,500 1,757 Climbing FlightAware ADS-B
Thu 03:56:23 AM 33.6720 -117.2700 85° East 519 597 29,000 1,757 Climbing FlightAware ADS-B
Thu 03:57:07 AM 33.7050 -117.0950 77° East 533 613 30,600 1,829 Climbing FlightAware ADS-B
Thu 03:57:45 AM 33.7260 -116.9840 77° East 539 620 31,500 1,829 Climbing FlightAware ADS-B
Thu 03:58:29 AM 33.7500 -116.8550 77° East 533 613 33,100 2,045 Climbing FlightAware ADS-B
Thu 03:59:13 AM 33.7730 -116.7310 77° East 528 608 34,500 1,909 Climbing FlightAware ADS-B
Thu 03:59:57 AM 33.7970 -116.6040 77° East 522 601 35,900 1,800 Climbing FlightAware ADS-B
Thu 04:00:33 AM 33.8150 -116.5030 78° East 518 596 36,900 955 Climbing FlightAware ADS-B
Thu 04:01:25 AM 33.8230 -116.4600 77° East 517 595 37,300 1,239 Climbing FlightAware ADS-B
Thu 04:02:05 AM 33.8620 -116.2470 78° East 517 595 38,800 1,610 Climbing FlightAware ADS-B
Thu 04:02:47 AM 33.8830 -116.1260 78° East 516 594 39,500 929 Climbing FlightAware ADS-B
Thu 04:03:29 AM 33.9020 -116.0100 79° East 517 595 40,100 732 Climbing FlightAware ADS-B
Thu 04:04:09 AM 33.9140 -115.9370 79° East 515 593 40,500 628 Climbing FlightAware ADS-B
Thu 04:04:55 AM 33.9400 -115.7710 79° East 512 589 41,000 288 Climbing FlightAware ADS-B
Thu 04:05:53 AM 33.9650 -115.6300 78° East 512 589 41,000  Level FlightAware ADS-B
Thu 04:06:33 AM 33.9820 -115.5350 78° East 512 589 41,000  Level FlightAware ADS-B
Thu 04:07:13 AM 34.0030 -115.3820 81° East 516 594 41,000  Level FlightAware ADS-B
Thu 04:07:57 AM 34.0230 -115.2570 79° East 516 594 41,000  Level FlightAware ADS-B
Thu 04:08:38 AM 34.0390 -115.1560 79° East 515 593 41,000  Level FlightAware ADS-B
Thu 04:09:14 AM 34.0530 -115.0700 79° East 515 593 41,000  Level FlightAware ADS-B
Thu 04:10:02 AM 34.0710 -114.9550 79° East 515 593 41,000  Level FlightAware ADS-B
Thu 04:10:45 AM 34.0880 -114.8520 79° East 515 593 41,000  Level FlightAware ADS-B
Thu 04:11:30 AM 34.1140 -114.6720 80° East 511 588 41,000  Level FlightAware ADS-B
Thu 04:12:11 AM 34.1320 -114.5450 80° East 509 586 41,000  Level FlightAware ADS-B
Thu 04:13:04 AM 34.1530 -114.4050 80° East 512 589 41,000  Level FlightAware ADS-B
Thu 04:13:47 AM 34.1730 -114.2770 79° East 510 587 41,000  Level FlightAware ADS-B
Thu 04:14:29 AM 34.1900 -114.1590 80° East 510 587 41,000  Level FlightAware ADS-B
Thu 04:15:11 AM 34.2070 -114.0410 80° East 509 586 41,000  Level FlightAware ADS-B
Thu 04:16:07 AM 34.2290 -113.9080 79° East 509 586 41,000  Level FlightAware ADS-B
Thu 04:16:49 AM 34.2470 -113.7700 81° East 510 587 41,000  Level FlightAware ADS-B
Thu 04:17:29 AM 34.2630 -113.6560 80° East 510 587 41,000  Level FlightAware ADS-B
Thu 04:18:09 AM 34.2790 -113.5480 80° East 508 585 41,000  Level FlightAware ADS-B
Thu 04:18:57 AM 34.2980 -113.4150 80° East 508 585 41,000  Level FlightAware ADS-B
Thu 04:19:34 AM 34.3130 -113.3070 80° East 508 585 41,000  Level FlightAware ADS-B
Thu 04:20:17 AM 34.3300 -113.1850 80° East 509 586 41,000  Level FlightAware ADS-B
Thu 04:21:02 AM 34.3470 -113.0610 81° East 510 587 41,000  Level FlightAware ADS-B
Thu 04:21:43 AM 34.3630 -112.9420 81° East 510 587 41,000  Level FlightAware ADS-B
Thu 04:22:23 AM 34.3790 -112.8310 80° East 511 588 41,000  Level FlightAware ADS-B
Thu 04:23:03 AM 34.3940 -112.7190 81° East 511 588 41,000  Level FlightAware ADS-B
Thu 04:23:47 AM 34.4110 -112.5940 81° East 510 587 41,000  Level FlightAware ADS-B
Thu 04:24:31 AM 34.4270 -112.4700 81° East 508 585 41,000  Level FlightAware ADS-B
Thu 04:25:52 AM 34.4400 -112.3720 81° East 510 587 41,000  Level FlightAware ADS-B
Thu 04:26:38 AM 34.4550 -112.2560 81° East 510 587 41,000  Level FlightAware ADS-B
Thu 04:27:14 AM 34.4870 -112.0130 81° East 511 588 41,000  Level FlightAware ADS-B
Thu 04:28:03 AM 34.5040 -111.8800 81° East 511 588 41,000  Level FlightAware ADS-B
Thu 04:28:45 AM 34.5200 -111.7600 81° East 505 581 41,000  Level FlightAware ADS-B
Thu 04:29:26 AM 34.5350 -111.6430 81° East 508 585 41,000  Level FlightAware ADS-B
Thu 04:30:06 AM 34.5490 -111.5290 81° East 509 586 41,000  Level FlightAware ADS-B
Thu 04:30:47 AM 34.5630 -111.4120 82° East 511 588 41,000  Level FlightAware ADS-B
Thu 04:31:31 AM 34.5790 -111.2880 81° East 510 587 41,000  Level FlightAware ADS-B
Thu 04:32:11 AM 34.5930 -111.1730 82° East 512 589 41,000  Level FlightAware ADS-B
Thu 04:32:52 AM 34.6040 -111.0780 82° East 516 594 41,000  Level FlightAware ADS-B
Thu 04:33:35 AM 34.6220 -110.9340 81° East 521 600 41,000  Level FlightAware ADS-B
Thu 04:34:17 AM 34.6360 -110.8120 82° East 520 598 41,000  Level FlightAware ADS-B
Thu 04:34:57 AM 34.6500 -110.6960 82° East 519 597 41,000  Level FlightAware ADS-B
Thu 04:36:15 AM 34.6760 -110.4750 82° East 515 593 41,000  Level FlightAware ADS-B
Thu 04:36:55 AM 34.6890 -110.3590 82° East 512 589 41,000  Level FlightAware ADS-B
Thu 04:37:39 AM 34.7040 -110.2320 82° East 513 590 41,000  Level FlightAware ADS-B
Thu 04:38:19 AM 34.7160 -110.1210 82° East 510 587 41,000  Level FlightAware ADS-B
Thu 04:38:59 AM 34.7290 -110.0110 82° East 510 587 41,000  Level FlightAware ADS-B
Thu 04:39:40 AM 34.7420 -109.8910 82° East 510 587 41,000  Level FlightAware ADS-B
Thu 04:40:25 AM 34.7570 -109.7620 82° East 513 590 41,000  Level FlightAware ADS-B
Thu 04:41:21 AM 34.7720 -109.6270 82° East 513 590 41,000  Level FlightAware ADS-B
Thu 04:41:55 AM 34.7810 -109.5440 82° East 513 590 41,000  Level FlightAware ADS-B
Thu 04:42:45 AM 34.8000 -109.3640 83° East 514 592 41,000  Level FlightAware ADS-B
Thu 04:43:25 AM 34.8120 -109.2480 83° East 517 595 41,000  Level FlightAware ADS-B
Thu 04:44:07 AM 34.8250 -109.1270 83° East 520 598 41,000  Level FlightAware ADS-B
Thu 04:45:21 AM 34.8470 -108.9150 83° East 522 601 41,000  Level FlightAware ADS-B
Thu 04:46:01 AM 34.8590 -108.8110 82° East 522 601 41,000  Level FlightAware ADS-B
Thu 04:46:37 AM 34.8690 -108.7220 82° East 522 601 41,000  Level FlightAware ADS-B
Thu 04:47:25 AM 34.8820 -108.6030 82° East 522 601 41,000  Level FlightAware ADS-B
Thu 04:48:05 AM 34.8950 -108.4310 85° East 526 605 41,000  Level FlightAware ADS-B
Thu 04:49:20 AM 34.8940 -108.2260 90° East 523 602 41,000  Level FlightAware ADS-B
Thu 04:49:55 AM 34.8890 -108.1390 94° East 523 602 41,000  Level FlightAware ADS-B
Thu 04:50:07 AM 34.8870 -108.1090 95° East 523 602 41,000  Level FlightAware ADS-B
Thu 04:51:25 AM 34.8760 -107.9140 94° East 523 602 41,000  Level FlightAware ADS-B
Thu 04:52:08 AM 34.7980 -107.7370 118° Southeast 523 602 41,000  Level FlightAware ADS-B
Thu 04:52:48 AM 34.7800 -107.6390 103° East 525 604 41,000  Level FlightAware ADS-B
Thu 04:53:33 AM 34.7510 -107.4880 103° East 529 609 41,000  Level FlightAware ADS-B
Thu 04:54:11 AM 34.7310 -107.3800 103° East 529 609 41,000  Level FlightAware ADS-B
Thu 04:54:55 AM 34.7060 -107.2510 103° East 528 608 41,000  Level FlightAware ADS-B
Thu 04:55:37 AM 34.6840 -107.1320 103° East 529 609 41,000  Level FlightAware ADS-B
Thu 04:56:17 AM 34.6620 -107.0170 103° East 528 608 41,000  Level FlightAware ADS-B
Thu 04:56:59 AM 34.6380 -106.8940 103° East 528 608 41,000  Level FlightAware ADS-B
Thu 04:57:45 AM 34.6150 -106.7610 102° East 529 609 41,000  Level FlightAware ADS-B
Thu 04:58:25 AM 34.5950 -106.6470 102° East 528 608 41,000  Level FlightAware ADS-B
Thu 04:59:07 AM 34.5740 -106.5240 102° East 523 602 41,000  Level FlightAware ADS-B
Thu 04:59:47 AM 34.5530 -106.4100 103° East 522 601 41,000  Level FlightAware ADS-B
Thu 05:00:25 AM 34.5340 -106.3010 102° East 519 597 41,000  Level FlightAware ADS-B
Thu 05:01:34 AM 34.4986 -106.1080 102° East 519 597 41,000  Level FlightAware ADS-B
Thu 05:02:04 AM 34.4831 -106.0230 102° East 513 590 41,000  Level FlightAware ADS-B
Thu 05:02:35 AM 34.4673 -105.9360 102° East 515 593 41,000  Level FlightAware ADS-B
Thu 05:03:05 AM 34.4518 -105.8520 103° East 512 589 41,000  Level FlightAware ADS-B
Thu 05:03:36 AM 34.4359 -105.7650 102° East 511 588 41,000  Level FlightAware ADS-B
Thu 05:04:07 AM 34.4202 -105.6810 103° East 510 587 41,000  Level FlightAware ADS-B
Thu 05:04:40 AM 34.4029 -105.5880 103° East 509 586 41,000  Level FlightAware ADS-B
Thu 05:05:10 AM 34.3873 -105.5040 103° East 509 586 41,000  Level FlightAware ADS-B
Thu 05:05:42 AM 34.3710 -105.4170 103° East 508 585 41,000  Level FlightAware ADS-B
Thu 05:06:16 AM 34.3531 -105.3220 103° East 506 582 41,000  Level FlightAware ADS-B
Thu 05:11:22 AM 34.1912 -104.4810 103° East 508 585 41,000  Level FlightAware ADS-B
Thu 05:11:53 AM 34.1748 -104.3970 103° East 509 586 41,000  Level FlightAware ADS-B
Thu 05:12:23 AM 34.1582 -104.3130 103° East 512 589 41,000  Level FlightAware ADS-B
Thu 05:12:53 AM 34.1416 -104.2290 103° East 514 592 41,000  Level FlightAware ADS-B
Thu 05:13:25 AM 34.1238 -104.1400 104° East 515 593 41,000  Level FlightAware ADS-B
Thu 05:13:56 AM 34.1066 -104.0540 104° East 519 597 41,000  Level FlightAware ADS-B
Thu 05:14:34 AM 34.0849 -103.9460 104° East 520 598 41,000  Level FlightAware ADS-B
Thu 05:15:07 AM 34.0664 -103.8540 104° East 523 602 41,000  Level FlightAware ADS-B
Thu 05:15:38 AM 34.0486 -103.7660 104° East 521 600 41,000  Level FlightAware ADS-B
Thu 05:16:15 AM 34.0277 -103.6620 104° East 523 602 41,000  Level FlightAware ADS-B
Thu 05:16:46 AM 34.0099 -103.5750 104° East 523 602 41,000  Level FlightAware ADS-B
Thu 05:17:16 AM 33.9924 -103.4900 104° East 522 601 41,000  Level FlightAware ADS-B
Thu 05:17:48 AM 33.9738 -103.4000 104° East 524 603 41,000  Level FlightAware ADS-B
Thu 05:18:18 AM 33.9560 -103.3130 104° East 523 602 41,000  Level FlightAware ADS-B
Thu 05:18:49 AM 33.9381 -103.2270 104° East 526 605 41,000  Level FlightAware ADS-B
Thu 05:19:19 AM 33.9203 -103.1410 104° East 528 608 41,000  Level FlightAware ADS-B
Thu 05:19:49 AM 33.9025 -103.0560 104° East 529 609 41,000  Level FlightAware ADS-B
Thu 05:20:19 AM 33.8844 -102.9700 104° East 529 609 41,000  Level FlightAware ADS-B
Thu 05:20:50 AM 33.8663 -102.8840 104° East 528 608 41,000  Level FlightAware ADS-B
Thu 05:21:21 AM 33.8477 -102.7950 104° East 528 608 41,000  Level FlightAware ADS-B
Thu 05:21:51 AM 33.8295 -102.7090 104° East 528 608 41,000  Level FlightAware ADS-B
Thu 05:22:21 AM 33.8112 -102.6240 105° East 528 608 41,000  Level FlightAware ADS-B
Thu 05:22:52 AM 33.7931 -102.5380 104° East 524 603 41,000  Level FlightAware ADS-B
Thu 05:23:22 AM 33.7749 -102.4530 104° East 524 603 41,000  Level FlightAware ADS-B
Thu 05:23:52 AM 33.7567 -102.3690 105° East 523 602 41,000  Level FlightAware ADS-B
Thu 05:24:11 AM 33.7449 -102.3160 105° East 522 601 41,000  Level FlightAware ADS-B
Thu 05:24:27 AM 33.7319 -102.2710 109° East 519 597 41,000  Level FlightAware ADS-B
Thu 05:24:40 AM 33.7193 -102.2370 114° Southeast 517 595 41,000  Level FlightAware ADS-B
Thu 05:25:00 AM 33.6969 -102.1890 119° Southeast 515 593 41,000  Level FlightAware ADS-B
Thu 05:25:32 AM 33.6552 -102.1100 122° Southeast 515 593 41,000  Level FlightAware ADS-B
Thu 05:26:03 AM 33.6165 -102.0360 122° Southeast 517 595 41,000  Level FlightAware ADS-B
Thu 05:26:33 AM 33.5777 -101.9620 122° Southeast 519 597 41,000  Level FlightAware ADS-B
Thu 05:27:04 AM 33.5381 -101.8870 122° Southeast 519 597 41,000  Level FlightAware ADS-B
Thu 05:27:35 AM 33.4991 -101.8140 123° Southeast 520 598 41,000  Level FlightAware ADS-B
Thu 05:28:09 AM 33.4548 -101.7300 122° Southeast 520 598 41,000  Level FlightAware ADS-B
Thu 05:28:40 AM 33.4145 -101.6550 123° Southeast 520 598 41,000  Level FlightAware ADS-B
Thu 05:29:11 AM 33.3748 -101.5800 122° Southeast 519 597 41,000  Level FlightAware ADS-B
Thu 05:29:42 AM 33.3347 -101.5050 123° Southeast 521 600 41,000  Level FlightAware ADS-B
Thu 05:34:46 AM 32.9396 -100.7740 123° Southeast 521 600 41,000  Level FlightAware ADS-B
Thu 05:35:16 AM 32.8993 -100.7000 123° Southeast 525 604 41,000  Level FlightAware ADS-B
Thu 05:35:49 AM 32.8559 -100.6210 123° Southeast 525 604 41,000  Level FlightAware ADS-B
Thu 05:36:22 AM 32.8115 -100.5400 123° Southeast 528 608 41,000  Level FlightAware ADS-B
Thu 05:37:04 AM 32.7554 -100.4380 123° Southeast 525 604 41,000  Level FlightAware ADS-B
Thu 05:37:59 AM 32.7000 -100.3380 123° Southeast 526 605 41,000  Level FlightAware ADS-B
Thu 05:38:43 AM 32.6520 -100.2500 123° Southeast 525 604 41,000  Level FlightAware ADS-B
Thu 05:39:29 AM 32.5640 -100.0920 123° Southeast 520 598 41,000  Level FlightAware ADS-B
Thu 05:40:07 AM 32.5140 -100.0020 123° Southeast 519 597 41,000  Level FlightAware ADS-B
Thu 05:40:44 AM 32.4647 -99.9143 124° Southeast 520 598 41,000  Level FlightAware ADS-B
Thu 05:41:17 AM 32.4204 -99.8350 123° Southeast 513 590 41,000  Level FlightAware ADS-B
Thu 05:41:50 AM 32.3782 -99.7598 124° Southeast 512 589 41,000  Level FlightAware ADS-B
Thu 05:42:20 AM 32.3388 -99.6894 124° Southeast 502 578 41,000  Level FlightAware ADS-B
Thu 05:42:50 AM 32.3004 -99.6212 124° Southeast 500 575 41,000  Level FlightAware ADS-B
Thu 05:42:56 AM 32.2924 -99.6072 124° Southeast 500 575 41,000  Level FlightAware ADS-B
Thu 05:43:21 AM 32.2614 -99.5522 124° Southeast 500 575 41,000  Level FlightAware ADS-B
Thu 05:43:28 AM 32.2517 -99.5350 124° Southeast 500 575 41,000  Level FlightAware ADS-B
Thu 05:44:31 AM 32.1720 -99.3940 124° Southeast 499 574 41,000  Level FlightAware ADS-B
Thu 05:45:19 AM 32.1120 -99.2870 123° Southeast 501 577 41,000  Level FlightAware ADS-B
Thu 05:45:45 AM 32.0765 -99.2257 124° Southeast 501 577 41,000  Level FlightAware ADS-B
Thu 05:46:22 AM 32.0288 -99.1419 124° Southeast 500 575 41,000  Level FlightAware ADS-B
Thu 05:46:54 AM 31.9873 -99.0696 124° Southeast 497 572 41,000  Level FlightAware ADS-B
Thu 05:47:25 AM 31.9490 -99.0020 124° Southeast 493 567 41,000  Level FlightAware ADS-B
Thu 05:48:06 AM 31.8959 -98.9096 124° Southeast 493 567 41,000  Level FlightAware ADS-B
Thu 05:48:45 AM 31.8470 -98.8240 124° Southeast 491 565 41,000  Level FlightAware ADS-B
Thu 05:49:26 AM 31.7940 -98.7320 124° Southeast 497 572 41,000  Level FlightAware ADS-B
Thu 05:49:51 AM 31.7615 -98.6755 124° Southeast 500 575 41,000  Level FlightAware ADS-B
Thu 05:50:27 AM 31.7151 -98.5937 124° Southeast 500 575 41,000  Level FlightAware ADS-B
Thu 05:50:58 AM 31.6760 -98.5251 124° Southeast 501 577 41,000  Level FlightAware ADS-B
Thu 05:51:39 AM 31.6233 -98.4329 124° Southeast 502 578 41,000  Level FlightAware ADS-B
Thu 05:52:09 AM 31.5840 -98.3645 124° Southeast 502 578 41,000  Level FlightAware ADS-B
Thu 05:52:39 AM 31.5445 -98.2955 124° Southeast 502 578 41,000  Level FlightAware ADS-B
Thu 05:53:10 AM 31.5048 -98.2262 124° Southeast 500 575 41,000  Level FlightAware ADS-B
Thu 05:53:40 AM 31.4659 -98.1588 124° Southeast 502 578 41,000  Level FlightAware ADS-B
Thu 05:54:20 AM 31.4144 -98.0696 124° Southeast 503 579 41,000  Level FlightAware ADS-B
Thu 05:54:50 AM 31.3749 -98.0014 124° Southeast 501 577 41,000  Level FlightAware ADS-B
Thu 05:55:21 AM 31.3358 -97.9341 124° Southeast 498 573 41,000 -484 Level FlightAware ADS-B
Thu 05:55:52 AM 31.2960 -97.8653 124° Southeast 497 572 40,500 -1,475 Descending FlightAware ADS-B
Thu 05:56:22 AM 31.2560 -97.7965 124° Southeast 503 579 39,500 -1,770 Descending FlightAware ADS-B
Thu 05:56:53 AM 31.2161 -97.7281 124° Southeast 505 581 38,700 -1,770 Descending FlightAware ADS-B
Thu 05:57:23 AM 31.1758 -97.6589 124° Southeast 509 586 37,700 -1,967 Descending FlightAware ADS-B
Thu 05:57:54 AM 31.1354 -97.5900 124° Southeast 515 593 36,700 -2,032 Descending FlightAware ADS-B
Thu 05:58:25 AM 31.0935 -97.5185 124° Southeast 520 598 35,600 -2,557 Descending FlightAware ADS-B
Thu 05:58:55 AM 31.0519 -97.4476 124° Southeast 522 601 34,100 -3,049 Descending FlightAware ADS-B
Thu 05:59:26 AM 31.0099 -97.3758 124° Southeast 526 605 32,500 -3,148 Descending FlightAware ADS-B
Thu 05:59:56 AM 30.9683 -97.3050 124° Southeast 529 609 30,900 -2,852 Descending FlightAware ADS-B
Thu 06:00:27 AM 30.9264 -97.2338 124° Southeast 526 605 29,600 -2,361 Descending FlightAware ADS-B
Thu 06:00:57 AM 30.8849 -97.1637 125° Southeast 516 594 28,500 -2,300 Descending FlightAware ADS-B
Thu 06:01:27 AM 30.8447 -97.0958 125° Southeast 509 586 27,300 -2,400 Descending FlightAware ADS-B
Thu 06:01:57 AM 30.8044 -97.0277 125° Southeast 501 577 26,100 -2,300 Descending FlightAware ADS-B
Thu 06:02:27 AM 30.7652 -96.9618 125° Southeast 493 567 25,000 -2,262 Descending FlightAware ADS-B
Thu 06:02:58 AM 30.7263 -96.8967 125° Southeast 484 557 23,800 -2,331 Descending FlightAware ADS-B
Thu 06:04:28 AM 30.6143 -96.7086 125° Southeast 450 518 20,300 -2,281 Descending FlightAware ADS-B
Thu 06:04:59 AM 30.5791 -96.6500 125° Southeast 438 504 19,200 -2,176 Descending FlightAware ADS-B
Thu 06:05:59 AM 30.5113 -96.5376 125° Southeast 419 482 17,000 -2,150 Descending FlightAware ADS-B
Thu 06:06:59 AM 30.4454 -96.4280 125° Southeast 406 467 14,900 -2,110 Descending FlightAware ADS-B
Thu 06:07:30 AM 30.4129 -96.3735 125° Southeast 398 458 13,800 -2,152 Descending FlightAware ADS-B
Thu 06:08:31 AM 30.3503 -96.2700 125° Southeast 386 444 11,600 -1,780 Descending FlightAware ADS-B
Thu 06:09:01 AM 30.3197 -96.2196 125° Southeast 368 423 11,100 -800 Descending FlightAware ADS-B
Thu 06:09:31 AM 30.2914 -96.1729 125° Southeast 341 392 10,800 -550 Descending FlightAware ADS-B
Thu 06:11:01 AM 30.2173 -96.0508 125° Southeast 286 329 10,000 -750 Descending FlightAware ADS-B
Thu 06:11:47 AM 30.1831 -95.9947 125° Southeast 281 323 9,100 -1,180 Descending FlightAware ADS-B
Thu 06:12:02 AM 30.1718 -95.9761 125° Southeast 280 322 8,800 -1,125 Descending FlightAware ADS-B
Thu 06:12:19 AM 30.1593 -95.9556 125° Southeast 279 321 8,500 -1,059 Descending FlightAware ADS-B

Login

Don't have an account? Register now (free) for customized features, flight alerts, and more!